createdAt,value
2022-10-18T00:00:19.974Z,18.00
2022-10-18T00:02:46.951Z,17.00
2022-10-18T00:05:13.971Z,16.80
2022-10-18T00:07:40.871Z,16.90
2022-10-18T00:10:08.576Z,16.90
2022-10-18T00:12:36.734Z,17.20
2022-10-18T00:15:06.221Z,17.30
2022-10-18T00:17:35.567Z,17.30
2022-10-18T00:20:02.572Z,17.50
2022-10-18T00:22:29.781Z,17.80
2022-10-18T00:24:57.043Z,18.00
2022-10-18T00:27:23.984Z,18.10
2022-10-18T00:29:53.446Z,18.10
2022-10-18T00:32:20.656Z,18.20
2022-10-18T00:34:47.768Z,18.40
2022-10-18T00:37:14.910Z,18.50
2022-10-18T00:39:42.076Z,18.30
2022-10-18T00:42:16.360Z,18.40
2022-10-18T00:44:43.363Z,18.60
2022-10-18T00:47:12.774Z,19.20
2022-10-18T00:49:46.244Z,19.80
2022-10-18T00:52:45.546Z,20.20
2022-10-18T00:55:13.684Z,19.70
2022-10-18T00:57:43.252Z,21.60
2022-10-18T01:00:10.888Z,20.40
2022-10-18T01:02:39.979Z,20.50
2022-10-18T01:05:07.581Z,20.70
2022-10-18T01:08:04.247Z,20.60
2022-10-18T01:10:35.257Z,20.20
2022-10-18T01:13:39.508Z,20.60
2022-10-18T01:16:22.997Z,20.00
2022-10-18T01:18:55.367Z,20.60
2022-10-18T01:21:37.789Z,20.70
2022-10-18T01:24:24.035Z,20.60
2022-10-18T01:27:16.962Z,20.70
2022-10-18T01:30:02.331Z,20.70
2022-10-18T01:32:34.993Z,21.30
2022-10-18T01:35:10.303Z,21.50
2022-10-18T01:37:38.644Z,21.90
2022-10-18T01:40:07.793Z,22.80
2022-10-18T01:42:35.250Z,22.70
2022-10-18T01:45:04.288Z,22.80
2022-10-18T01:47:31.671Z,22.80
2022-10-18T01:50:00.622Z,22.80
2022-10-18T01:52:27.820Z,22.80
2022-10-18T01:54:56.157Z,22.80
2022-10-18T01:57:40.952Z,22.90
2022-10-18T02:00:19.207Z,23.00
2022-10-18T02:03:04.009Z,23.00
2022-10-18T02:05:42.313Z,22.90
2022-10-18T02:08:30.526Z,22.90
2022-10-18T02:11:05.394Z,22.90
2022-10-18T02:13:53.805Z,23.00
2022-10-18T02:16:43.371Z,23.00
2022-10-18T02:19:20.395Z,23.00
2022-10-18T02:21:48.531Z,23.00
2022-10-18T02:24:17.939Z,23.00
2022-10-18T02:26:45.008Z,23.00
2022-10-18T02:29:12.357Z,23.00
2022-10-18T02:31:45.058Z,23.00
2022-10-18T02:34:37.314Z,23.00
2022-10-18T02:37:05.155Z,23.00
2022-10-18T02:39:35.846Z,23.00
2022-10-18T02:42:06.935Z,23.00
2022-10-18T02:44:34.992Z,23.00
2022-10-18T02:47:02.592Z,23.00
2022-10-18T02:49:29.719Z,23.00
2022-10-18T02:51:56.762Z,23.00
2022-10-18T02:54:24.160Z,23.10
2022-10-18T02:56:51.348Z,23.10
2022-10-18T02:59:18.335Z,23.10
2022-10-18T03:01:45.284Z,23.20
2022-10-18T03:04:12.315Z,23.20
2022-10-18T03:06:39.262Z,23.10
2022-10-18T03:09:06.872Z,23.10
2022-10-18T03:11:33.838Z,23.20
2022-10-18T03:14:00.824Z,23.10
2022-10-18T03:16:28.015Z,23.10
2022-10-18T03:18:54.902Z,23.40
2022-10-18T03:21:21.807Z,23.30
2022-10-18T03:23:48.762Z,23.40
2022-10-18T03:26:15.915Z,23.90
2022-10-18T03:28:42.970Z,24.00
2022-10-18T03:31:09.935Z,24.00
2022-10-18T03:33:36.885Z,24.50
2022-10-18T03:36:03.965Z,25.00
2022-10-18T03:38:31.273Z,25.00
2022-10-18T03:40:58.298Z,25.00
2022-10-18T03:43:25.225Z,25.30
2022-10-18T03:45:52.334Z,25.40
2022-10-18T03:48:22.456Z,25.40
2022-10-18T03:50:49.345Z,25.40
2022-10-18T03:53:16.362Z,25.80
2022-10-18T03:55:43.423Z,25.60
2022-10-18T03:58:10.464Z,25.80
2022-10-18T04:00:37.415Z,25.90
2022-10-18T04:03:04.378Z,25.80
2022-10-18T04:05:31.493Z,25.90
2022-10-18T04:07:58.833Z,26.10
2022-10-18T04:10:25.871Z,26.30
2022-10-18T04:12:52.863Z,26.40
2022-10-18T04:15:20.389Z,26.60
2022-10-18T04:17:47.348Z,26.60
2022-10-18T04:20:14.537Z,26.60
2022-10-18T04:22:41.625Z,26.60
2022-10-18T04:25:08.640Z,26.70
2022-10-18T04:27:36.243Z,26.70
2022-10-18T04:30:03.539Z,27.00
2022-10-18T04:32:30.430Z,27.00
2022-10-18T04:34:57.352Z,27.10
2022-10-18T04:37:24.253Z,27.00
2022-10-18T04:39:53.566Z,27.10
2022-10-18T04:42:22.092Z,27.20
2022-10-18T04:44:49.156Z,27.10
2022-10-18T04:47:16.893Z,27.20
2022-10-18T04:49:44.233Z,27.10
2022-10-18T04:52:11.479Z,27.00
2022-10-18T04:54:38.456Z,27.00
2022-10-18T04:57:05.465Z,27.10
2022-10-18T04:59:32.452Z,27.00
2022-10-18T05:01:59.422Z,27.20
2022-10-18T05:04:26.434Z,27.30
2022-10-18T05:06:53.362Z,27.60
2022-10-18T05:09:22.332Z,27.90
2022-10-18T05:11:49.170Z,28.10
2022-10-18T05:14:16.283Z,28.20
2022-10-18T05:16:43.209Z,28.20
2022-10-18T05:19:10.258Z,28.30
2022-10-18T05:21:37.180Z,28.40
2022-10-18T05:24:04.453Z,28.40
2022-10-18T05:26:31.375Z,28.20
2022-10-18T05:28:58.566Z,28.10
2022-10-18T05:31:25.505Z,27.90
2022-10-18T05:33:52.459Z,28.40
2022-10-18T05:36:19.391Z,28.30
2022-10-18T05:38:47.996Z,28.50
2022-10-18T05:41:15.273Z,28.90
2022-10-18T05:43:42.213Z,29.30
2022-10-18T05:46:14.626Z,29.60
2022-10-18T05:48:43.982Z,29.60
2022-10-18T05:51:11.300Z,29.60
2022-10-18T05:53:38.454Z,29.50
2022-10-18T05:56:07.083Z,29.50
2022-10-18T05:58:35.187Z,29.60
2022-10-18T06:01:03.555Z,30.00
2022-10-18T06:03:31.041Z,30.00
2022-10-18T06:06:07.033Z,30.20
2022-10-18T06:08:34.987Z,30.00
2022-10-18T06:11:13.954Z,29.00
2022-10-18T06:13:48.823Z,30.40
2022-10-18T06:16:17.670Z,30.80
2022-10-18T06:18:49.363Z,30.90
2022-10-18T06:21:16.998Z,31.00
2022-10-18T06:23:44.284Z,31.00
2022-10-18T06:26:11.942Z,31.10
2022-10-18T06:28:39.285Z,31.40
2022-10-18T06:31:06.766Z,31.70
2022-10-18T06:33:35.290Z,31.70
2022-10-18T06:36:04.936Z,32.00
2022-10-18T06:38:32.502Z,32.30
2022-10-18T06:40:59.962Z,31.20
2022-10-18T06:43:27.312Z,33.90
2022-10-18T06:45:54.952Z,34.50
2022-10-18T06:48:22.488Z,32.80
2022-10-18T06:50:57.470Z,30.40
2022-10-18T06:53:30.162Z,28.80
2022-10-18T06:56:01.719Z,27.80
2022-10-18T06:58:29.698Z,27.40
2022-10-18T07:00:57.269Z,27.10
2022-10-18T07:03:24.477Z,27.00
2022-10-18T07:05:51.347Z,26.90
2022-10-18T07:08:18.502Z,27.10
2022-10-18T07:10:54.527Z,27.00
2022-10-18T07:13:37.825Z,26.50
2022-10-18T07:16:14.184Z,26.40
2022-10-18T07:18:47.056Z,26.30
2022-10-18T07:21:16.426Z,26.40
2022-10-18T07:23:46.019Z,26.50
2022-10-18T07:26:17.519Z,26.40
2022-10-18T07:28:46.502Z,26.10
2022-10-18T07:31:14.086Z,26.10
2022-10-18T07:33:43.000Z,25.80
2022-10-18T07:36:11.554Z,25.40
2022-10-18T07:38:38.945Z,25.10
2022-10-18T07:41:07.573Z,24.50
2022-10-18T07:43:35.403Z,24.50
2022-10-18T07:46:05.657Z,24.70
2022-10-18T07:48:32.885Z,24.80
2022-10-18T07:51:01.125Z,25.10
2022-10-18T07:53:29.458Z,23.90
2022-10-18T07:56:03.451Z,22.10
2022-10-18T07:58:35.873Z,21.20
2022-10-18T08:01:05.452Z,20.40
2022-10-18T08:03:32.861Z,19.70
2022-10-18T08:05:59.879Z,18.90
2022-10-18T08:08:27.003Z,18.20
2022-10-18T08:10:54.372Z,17.60
2022-10-18T08:13:21.308Z,16.90
2022-10-18T08:15:48.280Z,16.60
2022-10-18T08:18:15.293Z,16.30
2022-10-18T08:20:46.851Z,15.80
2022-10-18T08:23:13.770Z,16.10
2022-10-18T08:25:40.794Z,15.50
2022-10-18T08:28:07.919Z,15.00
2022-10-18T08:30:35.859Z,14.30
2022-10-18T08:33:03.375Z,14.10
2022-10-18T08:35:31.819Z,13.90
2022-10-18T08:37:59.419Z,13.70
2022-10-18T08:40:27.660Z,13.40
2022-10-18T08:43:03.499Z,13.50
2022-10-18T08:45:47.924Z,13.10
2022-10-18T08:48:29.109Z,13.10
2022-10-18T08:50:57.287Z,12.70
2022-10-18T08:53:40.467Z,12.40
2022-10-18T08:56:14.688Z,11.90
2022-10-18T08:58:46.799Z,11.70
2022-10-18T09:04:37.389Z,10.50
2022-10-18T09:07:41.495Z,9.90
2022-10-18T09:10:39.499Z,9.60
2022-10-18T09:13:50.765Z,9.30
2022-10-18T09:16:32.020Z,8.80
2022-10-18T09:19:07.022Z,9.10
2022-10-18T09:21:42.571Z,9.10
2022-10-18T09:24:26.817Z,8.80
2022-10-18T09:27:14.413Z,8.50
2022-10-18T09:29:49.084Z,7.80
2022-10-18T09:32:36.189Z,7.60
2022-10-18T09:35:17.000Z,6.90
2022-10-18T09:37:44.756Z,7.20
2022-10-18T09:40:28.982Z,7.10
2022-10-18T09:43:05.866Z,7.00
2022-10-18T09:45:39.508Z,7.00
2022-10-18T09:48:06.638Z,7.00
2022-10-18T09:50:48.649Z,7.20
2022-10-18T09:53:18.568Z,7.20
2022-10-18T09:55:58.494Z,6.10
2022-10-18T09:58:31.521Z,6.20
2022-10-18T10:00:58.755Z,5.40
2022-10-18T10:03:25.926Z,5.90
2022-10-18T10:06:17.668Z,4.70
2022-10-18T10:08:49.134Z,4.80
2022-10-18T10:11:32.015Z,4.10
2022-10-18T10:14:19.481Z,4.20
2022-10-18T10:17:05.811Z,4.30
2022-10-18T10:19:38.021Z,4.20
2022-10-18T10:22:13.136Z,4.30
2022-10-18T10:24:58.318Z,1.50
2022-10-18T10:27:30.352Z,4.20
2022-10-18T10:30:04.239Z,2.30
2022-10-18T10:32:47.302Z,2.80
2022-10-18T10:35:52.664Z,1.30
2022-10-18T10:38:28.654Z,2.70
2022-10-18T10:40:56.316Z,3.30
2022-10-18T10:43:37.703Z,4.20
2022-10-18T10:46:06.024Z,4.20
2022-10-18T10:48:41.520Z,3.90
2022-10-18T10:51:10.994Z,3.30
2022-10-18T10:53:46.075Z,3.80
2022-10-18T10:56:27.827Z,1.60
2022-10-18T10:58:58.165Z,1.60
2022-10-18T11:01:31.112Z,2.30
2022-10-18T11:04:04.837Z,2.20
2022-10-18T11:06:44.902Z,1.80
2022-10-18T11:09:40.773Z,1.50
2022-10-18T11:12:33.127Z,1.00
2022-10-18T11:15:11.915Z,1.10
2022-10-18T11:20:27.213Z,1.00
2022-10-18T11:22:54.129Z,1.00
2022-10-18T11:25:24.972Z,1.00
2022-10-18T11:28:03.266Z,1.00
2022-10-18T11:30:49.844Z,1.00
2022-10-18T11:33:56.406Z,1.00
2022-10-18T11:36:26.385Z,1.00
2022-10-18T11:38:56.612Z,1.00
2022-10-18T11:41:40.614Z,1.00
2022-10-18T11:44:16.397Z,1.00
2022-10-18T11:47:07.616Z,1.00
2022-10-18T11:50:06.912Z,1.00
2022-10-18T11:52:50.445Z,1.00
2022-10-18T11:55:20.197Z,1.00
2022-10-18T11:57:51.669Z,1.00
2022-10-18T12:03:29.318Z,1.00
2022-10-18T12:06:01.052Z,1.00
2022-10-18T12:08:49.140Z,1.00
2022-10-18T12:11:24.022Z,1.00
2022-10-18T12:13:57.862Z,1.00
2022-10-18T12:16:49.500Z,1.00
2022-10-18T12:19:28.410Z,1.00
2022-10-18T12:22:12.585Z,1.00
2022-10-18T12:24:40.121Z,1.00
2022-10-18T12:27:11.755Z,1.00
2022-10-18T12:29:51.554Z,1.00
2022-10-18T12:32:27.166Z,1.00
2022-10-18T12:35:09.984Z,1.00
2022-10-18T12:37:46.005Z,1.00
2022-10-18T12:40:40.210Z,1.00
2022-10-18T12:43:36.916Z,1.00
2022-10-18T12:46:12.274Z,1.00
2022-10-18T12:48:45.417Z,1.00
2022-10-18T12:51:18.296Z,1.00
2022-10-18T12:54:07.156Z,1.00
2022-10-18T12:56:44.228Z,1.00
2022-10-18T12:59:17.080Z,1.00
2022-10-18T13:01:53.322Z,1.00
2022-10-18T13:04:32.580Z,1.00
2022-10-18T13:07:08.319Z,1.00
2022-10-18T13:09:37.103Z,1.00
2022-10-18T13:12:10.206Z,1.00
2022-10-18T13:15:24.041Z,1.00
2022-10-18T13:18:17.488Z,1.00
2022-10-18T13:20:53.461Z,1.00
2022-10-18T13:23:39.221Z,1.00
2022-10-18T13:26:15.472Z,1.00
2022-10-18T13:28:51.484Z,1.00
2022-10-18T13:31:40.112Z,1.00
2022-10-18T13:34:23.126Z,1.00
2022-10-18T13:37:10.347Z,1.00
2022-10-18T13:39:39.682Z,1.00
2022-10-18T13:42:15.834Z,1.00
2022-10-18T13:44:44.788Z,1.00
2022-10-18T13:47:14.349Z,1.00
2022-10-18T13:53:37.592Z,1.00
2022-10-18T13:56:20.703Z,1.00
2022-10-18T13:59:26.160Z,1.00
2022-10-18T14:02:13.874Z,1.00
2022-10-18T14:05:16.600Z,1.00
2022-10-18T14:07:48.942Z,1.00
2022-10-18T14:11:00.864Z,1.00
2022-10-18T14:13:36.653Z,1.00
2022-10-18T14:16:26.783Z,1.00
2022-10-18T14:19:00.913Z,1.00
2022-10-18T14:21:34.890Z,1.00
2022-10-18T14:24:02.769Z,1.00
2022-10-18T14:26:29.839Z,1.00
2022-10-18T14:29:07.902Z,1.00
2022-10-18T14:31:35.189Z,1.00
2022-10-18T14:34:03.467Z,1.00
2022-10-18T14:36:39.711Z,1.00
2022-10-18T14:39:17.016Z,1.00
2022-10-18T14:41:55.456Z,1.00
2022-10-18T14:44:29.335Z,1.00
2022-10-18T14:47:03.615Z,1.00
2022-10-18T14:49:31.117Z,1.00
2022-10-18T14:52:00.317Z,1.00
2022-10-18T14:54:33.006Z,1.20
2022-10-18T14:57:01.249Z,1.00
2022-10-18T14:59:30.608Z,1.30
2022-10-18T15:02:05.128Z,1.60
2022-10-18T15:04:34.832Z,1.20
2022-10-18T15:07:04.103Z,1.20
2022-10-18T15:09:34.287Z,1.60
2022-10-18T15:12:04.957Z,1.20
2022-10-18T15:14:32.175Z,1.50
2022-10-18T15:17:04.618Z,1.30
2022-10-18T15:19:35.184Z,1.10
2022-10-18T15:25:15.266Z,1.20
2022-10-18T15:28:04.259Z,1.80
2022-10-18T15:30:39.479Z,1.50
2022-10-18T15:33:09.825Z,1.80
2022-10-18T15:35:38.758Z,1.30
2022-10-18T15:38:20.939Z,1.30
2022-10-18T15:40:48.373Z,1.20
2022-10-18T15:43:24.453Z,1.60
2022-10-18T15:46:00.125Z,1.30
2022-10-18T15:48:38.115Z,1.60
2022-10-18T15:51:18.809Z,1.60
2022-10-18T15:53:52.808Z,1.90
2022-10-18T15:56:36.862Z,2.10
2022-10-18T15:59:06.840Z,1.60
2022-10-18T16:01:42.779Z,2.10
2022-10-18T16:04:29.061Z,2.10
2022-10-18T16:06:57.137Z,2.20
2022-10-18T16:09:26.871Z,3.10
2022-10-18T16:11:56.978Z,3.60
2022-10-18T16:14:25.927Z,3.60
2022-10-18T16:17:03.219Z,3.50
2022-10-18T16:19:32.039Z,3.40
2022-10-18T16:22:05.135Z,3.30
2022-10-18T16:24:33.482Z,3.20
2022-10-18T16:27:00.393Z,3.30
2022-10-18T16:29:31.966Z,4.00
2022-10-18T16:31:59.905Z,4.30
2022-10-18T16:34:27.489Z,4.60
2022-10-18T16:36:54.949Z,4.70
2022-10-18T16:39:22.955Z,4.80
2022-10-18T16:41:51.611Z,4.80
2022-10-18T16:44:19.276Z,5.20
2022-10-18T16:46:49.890Z,5.40
2022-10-18T16:49:25.589Z,5.50
2022-10-18T16:51:53.823Z,5.80
2022-10-18T16:54:20.867Z,5.90
2022-10-18T16:56:49.940Z,6.20
2022-10-18T16:59:31.557Z,6.50
2022-10-18T17:01:58.655Z,6.60
2022-10-18T17:04:25.567Z,7.30
2022-10-18T17:06:57.258Z,7.20
2022-10-18T17:09:24.190Z,7.30
2022-10-18T17:11:51.079Z,7.30
2022-10-18T17:14:18.170Z,7.40
2022-10-18T17:16:47.081Z,7.50
2022-10-18T17:19:17.972Z,7.30
2022-10-18T17:21:44.837Z,7.40
2022-10-18T17:24:11.997Z,7.80
2022-10-18T17:26:38.939Z,8.10
2022-10-18T17:29:08.364Z,8.40
2022-10-18T17:31:35.776Z,8.40
2022-10-18T17:34:03.047Z,8.90
2022-10-18T17:36:31.339Z,9.20
2022-10-18T17:38:58.747Z,10.00
2022-10-18T17:41:26.267Z,10.50
2022-10-18T17:43:53.299Z,11.20
2022-10-18T17:46:20.605Z,11.60
2022-10-18T17:48:47.651Z,11.60
2022-10-18T17:51:16.618Z,11.30
2022-10-18T17:53:44.219Z,11.10
2022-10-18T17:56:11.987Z,11.10
2022-10-18T17:58:39.165Z,11.10
2022-10-18T18:01:20.970Z,11.30
2022-10-18T18:03:47.928Z,11.20
2022-10-18T18:06:20.929Z,11.70
2022-10-18T18:08:49.333Z,11.70
2022-10-18T18:11:17.577Z,12.20
2022-10-18T18:13:44.594Z,12.40
2022-10-18T18:16:11.704Z,13.30
2022-10-18T18:18:38.718Z,14.00
2022-10-18T18:21:05.824Z,14.40
2022-10-18T18:23:32.755Z,14.70
2022-10-18T18:26:00.048Z,15.60
2022-10-18T18:28:27.091Z,16.10
2022-10-18T18:30:54.108Z,16.30
2022-10-18T18:33:21.160Z,16.10
2022-10-18T18:35:58.363Z,15.90
2022-10-18T18:38:26.233Z,15.90
2022-10-18T18:41:08.250Z,15.20
2022-10-18T18:43:36.244Z,15.40
2022-10-18T18:46:03.549Z,15.90
2022-10-18T18:48:33.374Z,15.70
2022-10-18T18:51:00.902Z,15.80
2022-10-18T18:53:29.503Z,15.70
2022-10-18T18:56:05.282Z,15.70
2022-10-18T18:58:33.915Z,15.50
2022-10-18T19:01:06.857Z,15.30
2022-10-18T19:03:33.892Z,15.60
2022-10-18T19:06:06.226Z,15.70
2022-10-18T19:08:35.558Z,15.90
2022-10-18T19:11:03.654Z,16.50
2022-10-18T19:13:31.817Z,16.70
2022-10-18T19:16:28.141Z,16.90
2022-10-18T19:19:01.426Z,18.00
2022-10-18T19:21:31.096Z,18.70
2022-10-18T19:23:59.605Z,19.40
2022-10-18T19:26:31.965Z,20.40
2022-10-18T19:29:30.668Z,20.40
2022-10-18T19:32:03.410Z,20.20
2022-10-18T19:34:32.472Z,21.40
2022-10-18T19:36:59.402Z,21.10
2022-10-18T19:39:32.190Z,22.30
2022-10-18T19:42:03.114Z,22.50
2022-10-18T19:44:32.366Z,22.70
2022-10-18T19:46:59.773Z,23.50
2022-10-18T19:49:28.608Z,24.20
2022-10-18T19:51:56.577Z,24.20
2022-10-18T19:54:23.829Z,24.20
2022-10-18T19:56:50.974Z,23.90
2022-10-18T19:59:18.894Z,23.30
2022-10-18T20:01:45.885Z,22.90
2022-10-18T20:04:15.050Z,24.20
2022-10-18T20:06:42.509Z,24.10
2022-10-18T20:09:13.391Z,24.20
2022-10-18T20:11:43.360Z,24.20
2022-10-18T20:14:10.820Z,24.20
2022-10-18T20:16:38.071Z,24.20
2022-10-18T20:19:07.485Z,24.10
2022-10-18T20:21:36.188Z,24.20
2022-10-18T20:24:07.043Z,24.20
2022-10-18T20:26:35.836Z,24.20
2022-10-18T20:29:03.580Z,24.20
2022-10-18T20:31:37.141Z,24.20
2022-10-18T20:34:06.696Z,24.10
2022-10-18T20:36:34.759Z,24.10
2022-10-18T20:39:02.430Z,24.10
2022-10-18T20:41:35.515Z,24.10
2022-10-18T20:44:05.391Z,24.10
2022-10-18T20:46:35.215Z,24.10
2022-10-18T20:49:03.082Z,24.00
2022-10-18T20:51:30.252Z,24.10
2022-10-18T20:53:57.283Z,24.10
2022-10-18T20:56:27.127Z,24.00
2022-10-18T20:58:56.445Z,24.00
2022-10-18T21:01:29.587Z,24.00
2022-10-18T21:03:59.679Z,24.20
2022-10-18T21:06:28.106Z,25.10
2022-10-18T21:09:04.487Z,25.70
2022-10-18T21:11:34.729Z,25.80
2022-10-18T21:14:02.799Z,26.30
2022-10-18T21:16:34.547Z,26.10
2022-10-18T21:19:06.889Z,25.90
2022-10-18T21:21:34.474Z,25.60
2022-10-18T21:24:04.062Z,25.50
2022-10-18T21:26:34.347Z,25.40
2022-10-18T21:29:01.285Z,25.40
2022-10-18T21:31:30.373Z,25.50
2022-10-18T21:34:04.699Z,25.60
2022-10-18T21:36:36.567Z,25.30
2022-10-18T21:39:10.679Z,25.00
2022-10-18T21:41:38.207Z,23.90
2022-10-18T21:44:08.241Z,24.20
2022-10-18T21:46:37.550Z,24.40
2022-10-18T21:49:05.270Z,25.50
2022-10-18T21:51:32.239Z,24.00
2022-10-18T21:53:59.246Z,24.10
2022-10-18T21:56:32.765Z,24.50
2022-10-18T21:59:00.120Z,23.60
2022-10-18T22:01:29.926Z,23.60
2022-10-18T22:03:57.270Z,23.40
2022-10-18T22:06:25.533Z,23.50
2022-10-18T22:08:54.823Z,23.40
2022-10-18T22:11:24.792Z,23.30
2022-10-18T22:13:52.889Z,23.30
2022-10-18T22:16:20.375Z,23.30
2022-10-18T22:18:49.031Z,23.10
2022-10-18T22:21:18.583Z,23.10
2022-10-18T22:23:48.263Z,23.10
2022-10-18T22:26:19.888Z,23.00
2022-10-18T22:28:48.142Z,24.20
2022-10-18T22:31:20.695Z,24.80
2022-10-18T22:33:52.109Z,24.50
2022-10-18T22:36:18.984Z,24.10
2022-10-18T22:38:45.899Z,24.10
2022-10-18T22:41:12.892Z,24.90
2022-10-18T22:43:40.419Z,25.30
2022-10-18T22:46:10.630Z,26.00
2022-10-18T22:48:38.094Z,26.70
2022-10-18T22:51:05.860Z,26.30
2022-10-18T22:53:33.776Z,27.60
2022-10-18T22:56:01.596Z,27.80
2022-10-18T22:58:28.563Z,28.40
2022-10-18T23:01:03.840Z,28.70
2022-10-18T23:03:30.882Z,28.70
2022-10-18T23:05:58.166Z,29.10
2022-10-18T23:08:25.764Z,29.30
2022-10-18T23:10:55.659Z,29.40
2022-10-18T23:13:27.370Z,29.60
2022-10-18T23:16:04.388Z,29.90
2022-10-18T23:18:32.769Z,30.00
2022-10-18T23:21:04.448Z,30.70
2022-10-18T23:23:35.375Z,31.00
2022-10-18T23:26:07.368Z,31.50
2022-10-18T23:28:37.026Z,31.70
2022-10-18T23:31:22.160Z,31.90
2022-10-18T23:33:51.640Z,31.40
2022-10-18T23:36:19.031Z,31.60
2022-10-18T23:38:46.157Z,31.60
2022-10-18T23:41:15.134Z,31.70
2022-10-18T23:43:43.187Z,31.80
2022-10-18T23:46:10.880Z,31.90
2022-10-18T23:48:37.756Z,31.90
2022-10-18T23:51:05.198Z,31.60
2022-10-18T23:53:32.607Z,31.40
2022-10-18T23:56:01.900Z,31.50
2022-10-18T23:58:30.612Z,31.40
